Map

Track Data

SID SEASON NUMBER BASIN SUBBASIN NAME ISO_TIME NATURE LAT LON WMO_WIND WMO_PRES WMO_AGENCY TRACK_TYPE DIST2LAND LANDFALL IFLAG USA_AGENCY USA_ATCF_ID USA_LAT USA_LON USA_RECORD USA_STATUS USA_WIND USA_PRES USA_SSHS USA_R34_NE USA_R34_SE USA_R34_SW USA_R34_NW USA_R50_NE USA_R50_SE USA_R50_SW USA_R50_NW USA_R64_NE USA_R64_SE USA_R64_SW USA_R64_NW USA_POCI USA_ROCI USA_RMW USA_EYE TOKYO_LAT TOKYO_LON TOKYO_GRADE TOKYO_WIND TOKYO_PRES TOKYO_R50_DIR TOKYO_R50_LONG TOKYO_R50_SHORT TOKYO_R30_DIR TOKYO_R30_LONG TOKYO_R30_SHORT TOKYO_LAND CMA_LAT CMA_LON CMA_CAT CMA_WIND CMA_PRES HKO_LAT HKO_LON HKO_CAT HKO_WIND HKO_PRES NEWDELHI_LAT NEWDELHI_LON NEWDELHI_GRADE NEWDELHI_WIND NEWDELHI_PRES NEWDELHI_CI NEWDELHI_DP NEWDELHI_POCI REUNION_LAT REUNION_LON REUNION_TYPE REUNION_WIND REUNION_PRES REUNION_TNUM REUNION_CI REUNION_RMW REUNION_R34_NE REUNION_R34_SE REUNION_R34_SW REUNION_R34_NW REUNION_R50_NE REUNION_R50_SE REUNION_R50_SW REUNION_R50_NW REUNION_R64_NE REUNION_R64_SE REUNION_R64_SW REUNION_R64_NW BOM_LAT BOM_LON BOM_TYPE BOM_WIND BOM_PRES BOM_TNUM BOM_CI BOM_RMW BOM_R34_NE BOM_R34_SE BOM_R34_SW BOM_R34_NW BOM_R50_NE BOM_R50_SE BOM_R50_SW BOM_R50_NW BOM_R64_NE BOM_R64_SE BOM_R64_SW BOM_R64_NW BOM_ROCI BOM_POCI BOM_EYE BOM_POS_METHOD BOM_PRES_METHOD NADI_LAT NADI_LON NADI_CAT NADI_WIND NADI_PRES WELLINGTON_LAT WELLINGTON_LON WELLINGTON_WIND WELLINGTON_PRES DS824_LAT DS824_LON DS824_STAGE DS824_WIND DS824_PRES TD9636_LAT TD9636_LON TD9636_STAGE TD9636_WIND TD9636_PRES TD9635_LAT TD9635_LON TD9635_WIND TD9635_PRES TD9635_ROCI NEUMANN_LAT NEUMANN_LON NEUMANN_CLASS NEUMANN_WIND NEUMANN_PRES MLC_LAT MLC_LON MLC_CLASS MLC_WIND MLC_PRES USA_GUST BOM_GUST BOM_GUST_PER REUNION_GUST REUNION_GUST_PER USA_SEAHGT USA_SEARAD_NE USA_SEARAD_SE USA_SEARAD_SW USA_SEARAD_NW STORM_SPEED STORM_DIR
1954247N19152 1954 55 WP MM JUNE 1954-09-04 06:00:00 TS 18.6800 152.160 1004 tokyo main 2177 2157 OOO______O_O__ jtwc_wp WP101954 18.5000 152.200 50 0 19.0000 152.100 2 1004 0 0 0 18.9000 152.100 1 29 1004 18.5000 152.200 TC 50 18.5000 152.200 50 1003 120 4 303
1954247N19152 1954 55 WP MM JUNE 1954-09-04 09:00:00 TS 18.7985 151.967 main 2157 2136 PPP______P_P__ WP101954 18.6525 152.010 52 0 19.0375 151.902 2 1004 0 0 18.9975 151.900 1 29 1004 18.6525 152.010 TC 52 18.6525 152.010 52 1002 180 4 302
1954247N19152 1954 55 WP MM JUNE 1954-09-04 12:00:00 TS 18.9125 151.763 1004 tokyo main 2136 2110 OOO______OOO__ jtwc_wp WP101954 18.8000 151.800 55 0 19.1000 151.700 2 1004 0 0 0 19.1000 151.700 1 29 1004 18.8000 151.800 TC 55 18.8000 151.800 2 55 18.8000 151.800 55 1001 240 5 301
1954247N19152 1954 55 WP MM JUNE 1954-09-04 15:00:00 TS 19.0426 151.534 main 2110 2080 PPP______PPP__ WP101954 18.9425 151.557 55 0 19.2000 151.493 2 1004 0 0 19.2075 151.500 1 29 1004 18.9425 151.557 TC 55 18.9988 151.547 2 55 18.9425 151.557 55 1000 240 5 302
1954247N19152 1954 55 WP MM JUNE 1954-09-04 18:00:00 TS 19.1810 151.299 1004 tokyo main 2080 2060 OOO______OPO__ jtwc_wp WP101954 19.1000 151.300 55 0 19.3000 151.300 2 1004 0 0 0 19.3000 151.300 1 29 1004 19.1000 151.300 TC 55 19.1880 151.296 2 55 19.1000 151.300 55 999 240 5 304
1954247N19152 1954 55 WP MM JUNE 1954-09-04 21:00:00 TS 19.3313 151.086 main 2060 2030 PPP______PPP__ WP101954 19.3074 151.058 55 0 19.3573 151.187 2 1002 0 0 19.3499 151.107 1 33 1002 19.3074 151.058 TC 55 19.3581 151.046 2 55 19.3074 151.058 55 998 270 5 304
1954247N19152 1954 55 WP MM JUNE 1954-09-05 00:00:00 TS 19.4667 150.850 1000 tokyo main 2025 2005 OOO______OOO__ jtwc_wp WP101954 19.5000 150.800 55 0 19.4000 151.000 2 1000 0 0 0 19.4000 150.900 2 38 1000 19.5000 150.800 TC 55 19.5000 150.800 2 55 19.5000 150.800 55 998 300 6 295
1954247N19152 1954 55 WP MM JUNE 1954-09-05 03:00:00 TS 19.5684 150.548 main 2000 1985 PPP______PPP__ WP101954 19.6225 150.500 55 0 19.4354 150.557 2 998 0 0 19.4999 150.673 2 43 998 19.6225 150.500 TC 55 19.6074 150.556 2 57 19.6225 150.500 55 996 330 6 287
1954247N19152 1954 55 WP MM JUNE 1954-09-05 06:00:00 TS 19.6478 150.234 996 tokyo main 1985 1965 OOO______OPO__ jtwc_wp WP101954 19.7000 150.200 55 0 19.5000 150.100 9 996 0 0 0 19.6000 150.400 3 48 997 19.7000 150.200 TC 55 19.6869 150.302 2 60 19.7000 150.200 55 995 360 6 285
1954247N19152 1954 55 WP MM JUNE 1954-09-05 09:00:00 TS 19.7162 149.979 main 1965 1941 PPP______PPP__ WP101954 19.7498 149.972 60 0 19.6497 149.878 9 996 0 0 19.6501 150.057 3 48 996 19.7498 149.972 TC 60 19.7479 150.022 2 62 19.7498 149.972 60 993 330 5 285
1954247N19152 1954 55 WP MM JUNE 1954-09-05 12:00:00 TS 19.7833 149.700 996 tokyo main 1941 1916 OOO______OOO__ jtwc_wp WP101954 19.8000 149.700 65 1 19.8000 149.700 9 996 0 0 0 19.7000 149.700 3 48 996 19.8000 149.700 TC 65 19.8000 149.700 3 65 19.8000 149.700 65 991 300 6 285
1954247N19152 1954 55 WP MM JUNE 1954-09-05 15:00:00 TS 19.8782 149.335 main 1911 1883 PPP______PPP__ WP101954 19.9076 149.273 70 1 19.8648 149.445 9 996 0 0 19.7997 149.423 3 53 993 19.9076 149.273 TC 70 19.8816 149.323 3 67 19.9076 149.273 70 989 300 8 283
1954247N19152 1954 55 WP MM JUNE 1954-09-05 18:00:00 TS 19.9588 148.917 996 tokyo main 1883 1865 OOO______OPO__ jtwc_wp WP101954 20.0000 148.800 75 1 19.9000 149.100 9 996 0 0 0 19.9000 149.100 3 58 990 20.0000 148.800 TC 75 19.9525 148.903 3 70 20.0000 148.800 75 987 300 8 279
1954247N19152 1954 55 WP MM JUNE 1954-09-05 21:00:00 TS 20.0015 148.489 main 1865 1847 PPP______PPP__ WP101954 20.0223 148.400 75 1 19.9650 148.638 9 983 0 0 19.9800 148.638 3 67 985 20.0223 148.400 TC 75 19.9972 148.457 3 72 20.0223 148.400 75 984 300 8 273
1954247N19152 1954 55 WP MM JUNE 1954-09-06 00:00:00 TS 20.0000 148.033 970 tokyo main 1843 1827 OOO______OOO__ jtwc_wp WP101954 20.0000 148.000 75 1 20.0000 148.100 9 970 0 0 0 20.0000 148.100 4 77 980 20.0000 148.000 TC 75 20.0000 148.000 4 75 20.0000 148.000 75 982 300 9 267
1954247N19152 1954 55 WP MM JUNE 1954-09-06 03:00:00 TS 19.9616 147.549 main 1822 1817 PPP______PPP__ WP101954 19.9724 147.558 75 1 19.9875 147.543 9 970 0 0 19.9302 147.520 4 82 977 19.9724 147.558 TC 75 19.9347 147.561 4 77 19.9724 147.558 75 979 300 9 262
1954247N19152 1954 55 WP MM JUNE 1954-09-06 06:00:00 TS 19.8716 147.069 970 tokyo main 1817 1813 OOO______OPO__ jtwc_wp WP101954 19.9000 147.100 75 1 19.9000 147.000 9 970 0 0 0 19.8000 147.000 5 87 975 19.9000 147.100 TC 75 19.8295 147.114 4 80 19.9000 147.100 75 976 300 9 254
1954247N19152 1954 55 WP MM JUNE 1954-09-06 09:00:00 TS 19.7231 146.640 main 1820 1816 PPP______PPP__ WP101954 19.7574 146.650 80 1 19.7073 146.527 9 970 0 0 19.6495 146.700 5 92 972 19.7574 146.650 TC 80 19.7096 146.661 4 82 19.7574 146.650 80 972 300 9 249
1954247N19152 1954 55 WP MM JUNE 1954-09-06 12:00:00 TS 19.5667 146.217 970 tokyo main 1817 1814 OOO______OOO__ jtwc_wp WP101954 19.6000 146.200 85 2 19.5000 146.100 9 970 0 0 0 19.5000 146.400 5 97 969 19.6000 146.200 TC 85 19.6000 146.200 4 85 19.6000 146.200 85 969 300 9 251
1954247N19152 1954 55 WP MM JUNE 1954-09-06 15:00:00 TS 19.4445 145.763 main 1825 1810 PPP______PPP__ WP101954 19.4773 145.758 90 2 19.3698 145.700 9 970 0 0 19.3702 145.880 5 101 965 19.4773 145.758 TC 90 19.4948 145.728 4 87 19.4773 145.758 90 965 270 9 257
1954247N19152 1954 55 WP MM JUNE 1954-09-06 18:00:00 TS 19.3683 145.292 970 tokyo main 1810 1807 OOO______OPO__ jtwc_wp WP101954 19.4000 145.300 95 2 19.3000 145.300 9 970 0 0 0 19.3000 145.300 6 106 961 19.4000 145.300 TC 95 19.4097 145.249 4 90 19.4000 145.300 95 962 240 9 263
1954247N19152 1954 55 WP MM JUNE 1954-09-06 21:00:00 TS 19.3250 144.788 main 1807 1775 PPP______PPP__ WP101954 19.3476 144.777 95 2 19.2474 144.865 9 970 0 0 19.2900 144.762 6 111 957 19.3476 144.777 TC 95 19.3698 144.771 4 92 19.3476 144.777 95 959 270 9 271
1954247N19152 1954 55 WP MM JUNE 1954-09-07 00:00:00 TS 19.3833 144.317 970 tokyo main 1775 1741 OOO______OOO__ jtwc_wp WP101954 19.4000 144.300 95 2 19.3000 144.400 9 970 0 0 0 19.4000 144.300 6 116 954 19.4000 144.300 TC 95 19.4000 144.300 4 95 19.4000 144.300 95 956 300 8 290
1954247N19152 1954 55 WP MM JUNE 1954-09-07 03:00:00 TS 19.6106 143.960 main 1741 1693 PPP______PPP__ WP101954 19.6270 144.015 112 3 19.5352 143.871 9 970 0 0 19.6994 144.023 6 121 950 19.6270 144.015 TC 112 19.5483 143.824 4 101 19.6270 144.015 112 953 330 8 306
1954247N19152 1954 55 WP MM JUNE 1954-09-07 06:00:00 TS 19.8771 143.593 970 tokyo main 1693 1661 OOO______OPO__ jtwc_wp WP101954 19.9000 143.700 130 4 19.8000 143.400 9 970 0 0 0 20.0000 143.700 6 126 947 19.9000 143.700 TC 130 19.7624 143.357 4 107 19.9000 143.700 130 950 360 9 297
1954247N19152 1954 55 WP MM JUNE 1954-09-07 09:00:00 TS 20.0424 143.071 main 1661 1630 PPP______PPP__ WP101954 20.0805 143.108 125 4 19.9296 143.142 9 965 0 0 20.0882 143.050 6 131 942 20.0805 143.108 TC 125 19.9953 142.911 4 113 20.0805 143.108 125 942 360 10 286
1954247N19152 1954 55 WP MM JUNE 1954-09-07 12:00:00 TS 20.1500 142.550 960 tokyo main 1619 1603 OOO______OOO__ jtwc_wp WP101954 20.2000 142.500 120 4 20.0000 142.900 9 960 0 0 0 20.1000 142.400 6 136 938 20.2000 142.500 TC 120 20.2000 142.500 4 120 20.2000 142.500 120 934 360 9 281
1954247N19152 1954 55 WP MM JUNE 1954-09-07 15:00:00 TS 20.2129 142.167 main 1603 1582 PPP______PPP__ WP101954 20.2572 142.105 115 4 20.0501 142.480 9 960 0 0 20.1495 142.062 6 140 931 20.2572 142.105 TC 115 20.3062 142.146 4 115 20.2572 142.105 115 925 390 7 280
1954247N19152 1954 55 WP MM JUNE 1954-09-07 18:00:00 TS 20.2632 141.838 960 tokyo main 1578 1567 OOO______OPO__ jtwc_wp WP101954 20.3000 141.800 110 3 20.1000 142.000 9 960 0 0 0 20.2000 141.800 6 145 925 20.3000 141.800 TC 110 20.3791 141.827 4 110 20.3000 141.800 110 917 420 6 281
1954247N19152 1954 55 WP MM JUNE 1954-09-07 21:00:00 TS 20.3378 141.505 main 1567 1546 PPP______PPP__ WP101954 20.3923 141.515 105 3 20.1848 141.557 9 935 0 0 20.2276 141.407 6 150 917 20.3923 141.515 TC 105 20.4375 141.518 4 105 20.3923 141.515 105 912 390 7 285
1954247N19152 1954 55 WP MM JUNE 1954-09-08 00:00:00 TS 20.4333 141.150 910 tokyo main 1546 1508 OOO______OOO__ jtwc_wp WP101954 20.5000 141.200 100 3 20.3000 141.100 9 910 0 0 0 20.3000 141.000 6 155 910 20.5000 141.200 TC 100 20.5000 141.200 4 100 20.5000 141.200 100 908 360 8 287
1954247N19152 1954 55 WP MM JUNE 1954-09-08 03:00:00 TS 20.5605 140.716 main 1508 1485 PPP______PPP__ WP101954 20.6002 140.750 95 2 20.4576 140.578 9 910 0 0 20.4999 140.643 6 160 905 20.6002 140.750 TC 95 20.6051 140.827 4 101 20.6002 140.750 95 910 390 8 287
1954247N19152 1954 55 WP MM JUNE 1954-09-08 06:00:00 TS 20.6859 140.290 910 tokyo main 1485 1460 OOO______OPO__ jtwc_wp WP101954 20.7000 140.300 90 2 20.6000 140.100 9 910 0 0 0 20.7000 140.300 6 165 901 20.7000 140.300 TC 90 20.7151 140.443 4 102 20.7000 140.300 90 912 420 8 287
1954247N19152 1954 55 WP MM JUNE 1954-09-08 09:00:00 TS 20.7782 139.950 main 1455 1443 PPP______PPP__ WP101954 20.8073 139.977 97 3 20.6573 139.762 9 910 0 0 20.7725 139.942 6 160 905 20.8073 139.977 TC 97 20.8176 140.062 4 103 20.8073 139.977 97 913 420 6 285
1954247N19152 1954 55 WP MM JUNE 1954-09-08 12:00:00 TS 20.8500 139.650 910 tokyo main 1434 1417 OOO______OOO__ jtwc_wp WP101954 20.9000 139.700 105 3 20.7000 139.500 9 910 0 0 0 20.8000 139.600 6 155 910 20.9000 139.700 TC 105 20.9000 139.700 4 105 20.9000 139.700 105 915 420 6 283
1954247N19152 1954 55 WP MM JUNE 1954-09-08 15:00:00 TS 20.9098 139.356 main 1417 1391 PPP______PPP__ WP101954 20.9649 139.400 112 3 20.7924 139.257 9 910 0 0 20.8499 139.300 6 155 910 20.9649 139.400 TC 112 20.9218 139.378 4 108 20.9649 139.400 112 916 450 6 281
1954247N19152 1954 55 WP MM JUNE 1954-09-08 18:00:00 TS 20.9545 139.063 910 tokyo main 1391 1375 OOO______OPO__ jtwc_wp WP101954 21.0000 139.100 120 4 20.9000 139.000 9 910 0 0 0 20.9000 139.000 6 155 910 21.0000 139.100 TC 120 20.9270 139.077 4 112 21.0000 139.100 120 918 480 6 276
1954247N19152 1954 55 WP MM JUNE 1954-09-08 21:00:00 TS 20.9735 138.752 main 1375 1359 PPP______PPP__ WP101954 20.9849 138.807 120 4 21.0076 138.658 9 917 0 0 20.9351 138.642 6 145 917 20.9849 138.807 TC 120 20.9437 138.787 4 116 20.9849 138.807 120 919 480 6 276
1954247N19152 1954 55 WP MM JUNE 1954-09-09 00:00:00 TS 21.0167 138.433 925 tokyo main 1354 1328 OOO______OOO__ jtwc_wp WP101954 21.0000 138.500 120 4 21.1000 138.300 9 925 0 0 0 21.0000 138.300 6 136 925 21.0000 138.500 TC 120 21.0000 138.500 4 120 21.0000 138.500 120 920 480 6 284
1954247N19152 1954 55 WP MM JUNE 1954-09-09 03:00:00 TS 21.1255 138.104 main 1328 1293 PPP______PPP__ WP101954 21.1201 138.143 115 4 21.1350 137.977 9 925 0 0 21.1424 138.035 6 136 925 21.1201 138.143 TC 115 21.1157 138.184 4 115 21.1201 138.143 115 921 480 7 294
1954247N19152 1954 55 WP MM JUNE 1954-09-09 06:00:00 TS 21.2792 137.795 925 tokyo main 1293 1267 OOO______OPO__ jtwc_wp WP101954 21.3000 137.800 110 3 21.2000 137.700 9 925 0 0 0 21.3000 137.800 6 136 925 21.3000 137.800 TC 110 21.2751 137.870 4 110 21.3000 137.800 110 922 480 6 301
1954247N19152 1954 55 WP MM JUNE 1954-09-09 09:00:00 TS 21.4470 137.524 main 1267 1238 PPP______PPP__ WP101954 21.4774 137.520 105 3 21.3849 137.478 9 925 0 0 21.3925 137.535 6 136 925 21.4774 137.520 TC 105 21.4719 137.571 4 105 21.4774 137.520 105 922 480 6 309
1954247N19152 1954 55 WP MM JUNE 1954-09-09 12:00:00 TS 21.6500 137.300 925 tokyo main 1228 1198 OOO______OOO__ jtwc_wp WP101954 21.7000 137.300 100 3 21.6000 137.300 9 925 0 0 0 21.5000 137.300 6 136 925 21.7000 137.300 TC 100 21.7000 137.300 4 100 21.7000 137.300 100 923 480 6 321
1954247N19152 1954 55 WP MM JUNE 1954-09-09 15:00:00 TS 21.8948 137.139 main 1198 1164 PPP______PPP__ WP101954 21.9924 137.150 100 3 21.7349 137.157 9 925 0 0 21.6699 137.150 6 136 925 21.9924 137.150 TC 100 21.9865 137.075 4 100 21.9924 137.150 100 923 510 6 330
1954247N19152 1954 55 WP MM JUNE 1954-09-09 18:00:00 TS 22.1658 136.980 925 tokyo main 1164 1134 OOO______OPO__ jtwc_wp WP101954 22.3000 137.000 100 3 21.9000 137.000 9 925 0 0 0 21.9000 137.000 6 136 925 22.3000 137.000 TC 100 22.2946 136.878 4 100 22.3000 137.000 100 924 540 7 327
1954247N19152 1954 55 WP MM JUNE 1954-09-09 21:00:00 TS 22.4572 136.749 main 1119 1090 PPP______PPP__ WP101954 22.5876 136.758 100 3 22.1925 136.765 9 925 0 0 22.2075 136.765 6 136 925 22.5876 136.758 TC 100 22.5803 136.691 4 100 22.5876 136.758 100 924 540 7 320
1954247N19152 1954 55 WP MM JUNE 1954-09-10 00:00:00 TS 22.7000 136.500 925 tokyo main 1090 1070 OOO______OOO__ jtwc_wp WP101954 22.8000 136.500 100 3 22.5000 136.500 9 925 0 0 0 22.5000 136.500 6 136 925 22.8000 136.500 TC 100 22.8000 136.500 4 100 22.8000 136.500 100 925 540 6 310
1954247N19152 1954 55 WP MM JUNE 1954-09-10 03:00:00 TS 22.8240 136.279 main 1070 1050 PPP______PPP__ WP101954 22.8874 136.300 90 2 22.7300 136.250 9 925 0 0 22.6875 136.250 6 131 926 22.8874 136.300 TC 90 22.8644 136.277 4 93 22.8874 136.300 89 927 540 4 294
1954247N19152 1954 55 WP MM JUNE 1954-09-10 06:00:00 TS 22.8775 136.058 925 tokyo main 1050 1035 OOO______OPO__ jtwc_wp WP101954 22.9000 136.100 80 1 22.9000 136.000 9 925 0 0 0 22.8000 136.000 6 126 928 22.9000 136.100 TC 80 22.8650 136.049 4 87 22.9000 136.100 78 929 540 4 278
1954247N19152 1954 55 WP MM JUNE 1954-09-10 09:00:00 TS 22.8838 135.814 main 1035 1026 PPP______PPP__ WP101954 22.8625 135.857 77 1 23.0150 135.742 9 925 0 0 22.8425 135.750 6 121 930 22.8625 135.857 TC 77 22.8581 135.821 4 81 22.8625 135.857 76 930 510 5 277
1954247N19152 1954 55 WP MM JUNE 1954-09-10 12:00:00 TS 22.9333 135.567 925 tokyo main 1026 992 OOO______OOO__ jtwc_wp WP101954 22.9000 135.600 75 1 23.1000 135.500 9 925 0 0 0 22.9000 135.500 6 116 932 22.9000 135.600 TC 75 22.9000 135.600 4 75 22.9000 135.600 75 932 480 5 299
1954247N19152 1954 55 WP MM JUNE 1954-09-10 15:00:00 TS 23.1367 135.324 main 992 953 PPP______PPP__ WP101954 23.1775 135.335 75 1 23.1624 135.300 9 925 0 0 23.0700 135.235 6 116 933 23.1775 135.335 TC 75 23.0551 135.401 4 75 23.1775 135.335 75 934 480 6 317
1954247N19152 1954 55 WP MM JUNE 1954-09-10 18:00:00 TS 23.3945 135.101 925 tokyo main 953 924 OOO______OPO__ jtwc_wp WP101954 23.5000 135.100 75 1 23.3000 135.100 9 925 0 0 0 23.3000 135.000 6 116 935 23.5000 135.100 TC 75 23.2672 135.207 4 75 23.5000 135.100 75 936 480 6 321
1954247N19152 1954 55 WP MM JUNE 1954-09-10 21:00:00 TS 23.5955 134.921 main 924 899 PPP______PPP__ WP101954 23.6424 134.942 75 1 23.6125 134.850 9 925 0 0 23.5124 134.842 6 116 936 23.6424 134.942 TC 75 23.5207 135.010 4 75 23.6424 134.942 75 937 540 5 324
1954247N19152 1954 55 WP MM JUNE 1954-09-11 00:00:00 TS 23.8333 134.750 925 tokyo main 899 850 OOO______OOO__ jtwc_wp WP101954 23.8000 134.800 75 1 24.0000 134.600 9 925 0 0 0 23.8000 134.700 6 116 938 23.8000 134.800 TC 75 23.8000 134.800 4 75 23.8000 134.800 75 939 600 7 331
1954247N19152 1954 55 WP MM JUNE 1954-09-11 03:00:00 TS 24.1862 134.561 main 850 811 PPP______PPP__ WP101954 24.1349 134.623 75 1 24.3724 134.400 9 932 0 0 24.2574 134.523 6 111 939 24.1349 134.623 TC 75 24.0823 134.576 4 75 24.1349 134.623 75 940 540 8 332
1954247N19152 1954 55 WP MM JUNE 1954-09-11 06:00:00 TS 24.5475 134.340 940 tokyo main 807 768 OOO______OPO__ jtwc_wp WP101954 24.5000 134.400 75 1 24.7000 134.200 9 940 0 0 0 24.7000 134.300 6 106 941 24.5000 134.400 TC 75 24.3847 134.337 4 75 24.5000 134.400 75 942 480 8 325
1954247N19152 1954 55 WP MM JUNE 1954-09-11 09:00:00 TS 24.8207 134.079 main 768 735 PPP______PPP__ WP101954 24.7799 134.130 75 1 24.9374 133.972 9 940 0 0 24.9524 134.030 6 106 942 24.7799 134.130 TC 75 24.6948 134.079 4 75 24.7799 134.130 75 942 480 7 313
1954247N19152 1954 55 WP MM JUNE 1954-09-11 12:00:00 TS 25.0333 133.767 940 tokyo main 735 699 OOO______OOO__ jtwc_wp WP101954 25.0000 133.800 75 1 25.1000 133.700 9 940 0 0 0 25.1000 133.700 6 106 943 25.0000 133.800 TC 75 25.0000 133.800 4 75 25.0000 133.800 75 943 480 7 299
1954247N19152 1954 55 WP MM JUNE 1954-09-11 15:00:00 TS 25.1617 133.388 main 699 675 PPP______PPP__ WP101954 25.1277 133.392 77 1 25.1625 133.364 9 940 0 0 25.1627 133.292 6 106 943 25.1277 133.392 TC 77 25.2619 133.496 4 83 25.1277 133.392 78 943 510 7 294
1954247N19152 1954 55 WP MM JUNE 1954-09-11 18:00:00 TS 25.3367 133.012 940 tokyo main 675 623 OOO______OPO__ jtwc_wp WP101954 25.3000 133.000 80 1 25.3000 133.000 9 940 0 0 0 25.3000 132.900 6 106 944 25.3000 133.000 TC 80 25.5200 133.171 4 92 25.3000 133.000 82 944 540 8 310
1954247N19152 1954 55 WP MM JUNE 1954-09-11 21:00:00 TS 25.6784 132.705 main 623 574 PPP______PPP__ WP101954 25.6324 132.720 95 2 25.6901 132.621 9 940 0 0 25.6899 132.613 6 106 945 25.6324 132.720 TC 95 25.7931 132.836 4 101 25.6324 132.720 96 945 510 9 328
1954247N19152 1954 55 WP MM JUNE 1954-09-12 00:00:00 TS 26.1333 132.450 940 tokyo main 574 504 OOO______OOO__ jtwc_wp WP101954 26.1000 132.500 110 3 26.2000 132.300 9 940 0 0 0 26.2000 132.400 6 106 946 26.1000 132.500 TC 110 26.1000 132.500 4 110 26.1000 132.500 110 946 480 11 338
1954247N19152 1954 55 WP MM JUNE 1954-09-12 03:00:00 TS 26.6854 132.260 main 504 442 PPP______PPP__ WP101954 26.7297 132.330 107 3 26.7297 132.157 9 940 0 0 26.7372 132.280 6 106 946 26.7297 132.330 TC 107 26.4563 132.131 4 107 26.7297 132.330 107 947 510 11 340
1954247N19152 1954 55 WP MM JUNE 1954-09-12 06:00:00 TS 27.1913 132.028 940 tokyo main 442 411 OOO______OPO__ jtwc_wp WP101954 27.3000 132.100 105 3 27.2000 132.000 9 940 0 0 0 27.2000 132.100 6 106 947 27.3000 132.100 TC 105 26.8480 131.769 4 105 27.3000 132.100 105 948 540 10 323
1954247N19152 1954 55 WP MM JUNE 1954-09-12 09:00:00 TS 27.4563 131.609 main 400 371 PPP______PPP__ WP101954 27.5304 131.650 102 3 27.4654 131.600 9 942 0 0 27.4155 131.657 6 101 948 27.5304 131.650 TC 102 27.2657 131.447 4 102 27.5304 131.650 102 949 510 9 304
1954247N19152 1954 55 WP MM JUNE 1954-09-12 12:00:00 TS 27.6833 131.200 945 tokyo main 371 336 OOO______OOO__ jtwc_wp WP101954 27.7000 131.200 100 3 27.7000 131.200 9 945 0 0 0 27.6000 131.200 5 97 950 27.7000 131.200 TC 100 27.7000 131.200 4 100 27.7000 131.200 100 950 480 8 315
1954247N19152 1954 55 WP MM JUNE 1954-09-12 15:00:00 TS 28.0406 130.954 main 336 279 PPP______PPP__ WP101954 28.0548 130.918 100 3 28.0623 130.990 9 945 0 0 27.9548 130.925 5 97 951 28.0548 130.918 TC 100 28.0622 131.054 4 100 28.0548 130.918 100 951 480 9 339
1954247N19152 1954 55 WP MM JUNE 1954-09-12 18:00:00 TS 28.4750 130.848 945 tokyo main 279 235 OOO______OPO__ jtwc_wp WP101954 28.5000 130.800 100 3 28.5000 130.900 9 945 0 0 0 28.4000 130.800 5 97 953 28.5000 130.800 TC 100 28.4497 130.987 4 100 28.5000 130.800 100 953 480 9 356
1954247N19152 1954 55 WP MM JUNE 1954-09-12 21:00:00 TS 28.9025 130.895 main 235 180 PPP______PPP__ WP101954 28.9101 130.884 100 3 28.9400 130.899 9 945 0 0 28.8325 130.842 5 97 954 28.9101 130.884 TC 100 28.9124 130.976 4 100 28.9101 130.884 100 954 480 10 6
1954247N19152 1954 55 WP MM JUNE 1954-09-13 00:00:00 TS 29.4833 130.967 945 tokyo main 169 80 OOO______OOO__ jtwc_wp WP101954 29.5000 131.000 100 3 29.5000 130.900 9 945 0 0 0 29.4000 130.900 5 97 956 29.5000 131.000 TC 100 29.5000 131.000 4 100 29.5000 131.000 100 956 480 14 358
1954247N19152 1954 55 WP MM JUNE 1954-09-13 03:00:00 TS 30.3294 130.858 main 80 0 PPP______PPP__ WP101954 30.4551 130.887 90 2 30.2251 130.722 9 950 0 0 30.1677 130.737 5 92 956 30.4551 130.887 TC 90 30.2184 131.028 4 95 30.4551 130.887 90 957 480 18 355
1954247N19152 1954 55 WP MM JUNE 1954-09-13 06:00:00 TS 31.2947 130.781 955 tokyo main 0 0 OOO______OPO__ jtwc_wp WP101954 31.5000 130.800 80 1 31.1000 130.600 9 955 0 0 0 31.1000 130.600 5 87 957 31.5000 130.800 TC 80 31.0685 131.083 4 90 31.5000 130.800 80 959 480 18 2
1954247N19152 1954 55 WP MM JUNE 1954-09-13 09:00:00 TS 32.1599 130.907 main 0 0 PPP______PPP__ WP101954 32.2475 130.933 80 1 32.0552 130.775 9 959 0 0 32.1276 130.718 5 82 959 32.2475 130.933 TC 80 32.0342 131.147 4 85 32.2475 130.933 80 961 450 19 9
1954247N19152 1954 55 WP MM JUNE 1954-09-13 12:00:00 TS 33.1167 131.117 964 tokyo main 0 0 OOO______OOO__ jtwc_wp WP101954 33.1000 131.200 80 1 33.1000 131.000 9 964 0 0 0 33.2000 130.900 4 77 962 33.1000 131.200 TC 80 33.1000 131.200 4 80 33.1000 131.200 80 963 420 22 10
1954247N19152 1954 55 WP MM JUNE 1954-09-13 15:00:00 TS 34.3110 131.345 main 0 0 PPP______PPP__ WP101954 34.4054 131.627 67 1 34.1999 131.009 9 965 0 0 34.1999 130.951 4 77 962 34.4054 131.627 TC 67 34.2499 131.228 4 73 34.4054 131.627 67 965 450 25 7
1954247N19152 1954 55 WP MM JUNE 1954-09-13 18:00:00 TS 35.5542 131.482 966 tokyo main 92 92 OOO______OPO__ jtwc_wp WP101954 35.8000 131.900 55 0 35.3000 131.000 9 966 0 0 0 35.2000 131.000 4 77 962 35.8000 131.900 TC 55 35.4643 131.232 4 67 35.8000 131.900 55 968 480 23 1
1954247N19152 1954 55 WP MM JUNE 1954-09-13 21:00:00 TS 36.6162 131.380 main 169 160 PPP______PPP__ WP101954 36.9155 131.587 55 0 36.2327 131.142 9 968 0 0 36.1676 131.121 4 77 962 36.9155 131.587 TC 55 36.7217 131.220 4 61 36.9778 131.705 55 970 480 21 355
1954247N19152 1954 55 WP MM JUNE 1954-09-14 00:00:00 TS 37.6889 131.244 970 tokyo main 172 172 OOO______OOO__ jtwc_wp WP101954 38.0000 131.200 55 0 37.3000 131.300 9 970 0 0 0 37.3000 131.300 4 77 962 38.0000 131.200 TC 55 38.0000 131.200 2 55 38.0000 131.200 55 972 480 24 0
1954247N19152 1954 55 WP MM JUNE 1954-09-14 03:00:00 TS 39.0182 131.403 main 246 157 PPP______P____ WP101954 39.2275 131.329 55 0 38.8051 131.366 9 970 0 0 38.8128 131.591 4 72 963 39.2275 131.329 TC 55 2 28 5
1954247N19152 1954 55 WP MM JUNE 1954-09-14 06:00:00 TS 40.4500 131.550 970 tokyo main 163 93 OOO______O____ jtwc_wp WP101954 40.5000 131.500 55 0 40.4000 131.400 9 970 0 0 0 40.4000 131.800 4 68 964 40.5000 131.500 TC 55 2 28 1
1954247N19152 1954 55 WP MM JUNE 1954-09-14 09:00:00 TS 41.8168 131.451 main 86 0 PPP______P____ WP101954 41.8625 131.314 52 0 41.7898 131.472 9 970 0 0 41.7523 131.706 4 63 964 41.8625 131.314 TC 52 2 26 355
1954247N19152 1954 55 WP MM JUNE 1954-09-14 12:00:00 TS 43.0000 131.250 970 tokyo main 0 0 OOO______O____ jtwc_wp WP101954 43.0000 131.000 50 0 43.0000 131.500 9 970 0 0 0 43.0000 131.500 3 58 964 43.0000 131.000 TC 50 21 353
1954247N19152 1954 55 WP MM JUNE 1954-09-14 15:00:00 TS 43.8904 131.081 main 0 0 PPP______P____ WP101954 43.6124 130.726 47 0 44.0623 131.431 9 974 0 0 44.2746 131.442 3 53 966 43.6124 130.726 TC 47 16 351
1954247N19152 1954 55 WP MM JUNE 1954-09-14 18:00:00 TS 44.5750 130.900 978 tokyo main 0 0 OOO______O____ jtwc_wp WP101954 44.0000 130.500 45 0 44.9000 131.300 9 978 0 0 0 45.4000 131.300 3 48 968 44.0000 130.500 TC 45 14 349
1954247N19152 1954 55 WP MM JUNE 1954-09-14 21:00:00 TS 45.2468 130.713 main 0 0 PPP______P____ WP101954 44.5374 130.384 42 0 45.5621 131.209 9 981 0 0 46.3504 130.876 3 43 970 44.5374 130.384 TC 42 12 346
1954247N19152 1954 55 WP MM JUNE 1954-09-15 00:00:00 TS 45.7500 130.500 985 tokyo main 0 0 OOO______O____ jtwc_wp WP101954 45.0000 130.300 40 0 46.0000 131.000 9 985 0 0 0 47.0000 130.400 2 38 972 45.0000 130.300 TC 40 8 338
1954247N19152 1954 55 WP MM JUNE 1954-09-15 03:00:00 TS 46.0255 130.264 main 0 0 PPP______P____ WP101954 45.2871 130.209 37 0 46.2378 130.552 9 985 0 0 47.2898 130.088 2 38 974 45.2871 130.209 TC 37 7 326
1954247N19152 1954 55 WP MM JUNE 1954-09-15 06:00:00 TS 46.3000 129.971 986 tokyo main 0 0 OOO______O____ jtwc_wp WP101954 45.5000 130.000 35 0 46.4000 130.000 9 986 0 0 0 47.4000 129.900 2 38 976 45.5000 130.000 TC 35 8 324
1954247N19152 1954 55 WP MM JUNE 1954-09-15 09:00:00 TS 46.6546 129.602 main 0 0 PPP______P____ WP101954 45.7384 129.569 32 -1 46.6404 129.426 9 986 0 0 47.5849 129.812 2 33 978 45.7384 129.569 TC 32 9 331
1954247N19152 1954 55 WP MM JUNE 1954-09-15 12:00:00 TS 47.1200 129.320 986 tokyo main 0 0 OOO______O____ jtwc_wp WP101954 46.0000 129.000 30 -1 47.0000 129.000 9 986 0 0 0 47.8000 129.800 1 29 980 46.0000 129.000 TC 30 12 350
1954247N19152 1954 55 WP MM JUNE 1954-09-15 15:00:00 TS 47.8307 129.300 main 0 0 _PP___________ WP101954 -1 47.5764 128.821 9 988 0 0 48.0850 129.778 1 29 982 TC 12 2
1954247N19152 1954 55 WP MM JUNE 1954-09-15 18:00:00 TS 48.3000 129.400 991 tokyo main 0 0 _OO___________ -1 48.2000 129.000 9 991 0 0 0 48.4000 129.800 1 29 984 8 21
1954247N19152 1954 55 WP MM JUNE 1954-09-15 21:00:00 TS 48.6120 129.741 main 0 0 _PP___________ -1 48.5918 129.654 9 991 0 0 48.6322 129.828 1 29 986 9 35
1954247N19152 1954 55 WP MM JUNE 1954-09-16 00:00:00 ET 49.0500 130.200 992 tokyo main 0 0 _OO___________ -1 49.1000 130.400 6 992 0 0 0 49.0000 130.000 9 29 988 14 26
1954247N19152 1954 55 WP MM JUNE 1954-09-16 03:00:00 ET 49.9096 130.707 main 0 0 _PP___________ -1 50.0985 130.940 6 992 0 0 49.7208 130.473 9 989 18 17
1954247N19152 1954 55 WP MM JUNE 1954-09-16 06:00:00 ET 50.7571 131.000 992 tokyo main 0 0 _OO___________ -1 51.1000 131.000 6 992 0 0 0 50.5000 131.000 9 990 14 6
1954247N19152 1954 55 WP MM JUNE 1954-09-16 09:00:00 ET 51.2950 130.930 main 0 0 _PP___________ -1 51.6915 130.287 6 992 0 0 51.0968 131.252 9 990 9 356
1954247N19152 1954 55 WP MM JUNE 1954-09-16 12:00:00 ET 51.6250 130.900 992 tokyo main 0 0 _OO___________ -1 52.0000 129.100 6 992 0 0 0 51.5000 131.500 9 990 7 59
1954247N19152 1954 55 WP MM JUNE 1954-09-16 15:00:00 ET 51.6685 131.937 main 0 0 __P___________ -1 6 0 0 51.6685 131.937 9 991 10 86
1954247N19152 1954 55 WP MM JUNE 1954-09-16 18:00:00 ET 51.7000 132.500 main 0 __O___________ -1 51.7000 132.500 9 992 7 85

Digital Typhoon Data and Search

About IBTrACS Database

This database is a web-friendly format of International Best Track Archive for Climate Stewardship (IBTrACS), a global best track data archive curated by NOAA dating back to 1842.

Updated: 2021-10-25